This is the latest recevied weather packets stored in our database for station/object KD7CIH. If no packets are shown the sender has not sent any weather packets the latest 10 day(s).
| Time | Temp. | Humidity | Pressure | Rain* | Wind** | Luminosity | Snow |
|---|---|---|---|---|---|---|---|
| 1788083553 | 14.44° C | 69% | 1014.1 hPa | 0 mm | - | - | - |
| 1788083253 | 14.44° C | 70% | 1014 hPa | 0 mm | - | - | - |
| 1788082956 | 14.44° C | 70% | 1014.1 hPa | 0 mm | - | - | - |
| 1788082654 | 14.44° C | 71% | 1014 hPa | 0 mm | - | - | - |
| 1788082355 | 14.44° C | 71% | 1014.1 hPa | 0 mm | - | - | - |
| 1788082053 | 14.44° C | 71% | 1014 hPa | 0 mm | - | - | - |
| 1788081882 | 14.44° C | 71% | 1014.2 hPa | 0 mm | - | - | - |
| 1788081453 | 13.89° C | 73% | 1014.2 hPa | 0 mm | - | - | - |
| 1788081280 | 14.44° C | 73% | 1014 hPa | 0 mm | - | - | - |
| 1788080854 | 14.44° C | 73% | 1013.9 hPa | 0 mm | - | - | - |
| 1788080553 | 14.44° C | 74% | 1013.7 hPa | 0 mm | - | - | - |
| 1788080255 | 14.44° C | 74% | 1013.6 hPa | 0 mm | - | - | - |
| 1788080079 | 14.44° C | 74% | 1013.5 hPa | 0 mm | - | - | - |
| 1788079780 | 14.44° C | 74% | 1013.7 hPa | 0 mm | - | - | - |
| 1788079352 | 14.44° C | 75% | 1013.9 hPa | 0 mm | - | - | - |
| 1788079054 | 14.44° C | 75% | 1013.6 hPa | 0 mm | - | - | - |
| 1788078881 | 14.44° C | 74% | 1013.6 hPa | 0 mm | - | - | - |
| 1788078453 | 14.44° C | 74% | 1013.7 hPa | 0 mm | - | - | - |
| 1788078155 | 14.44° C | 73% | 1013.7 hPa | 0 mm | - | - | - |
| 1788077853 | 15° C | 71% | 1013.9 hPa | 0 mm | - | - | - |
| 1788077681 | 15.56° C | 70% | 1013.9 hPa | 0 mm | - | - | - |
| 1788077255 | 15.56° C | 68% | 1013.9 hPa | 0 mm | - | - | - |
| 1788076955 | 15.56° C | 69% | 1014 hPa | 0 mm | - | - | - |
| 1788076655 | 15° C | 72% | 1014.1 hPa | 0 mm | - | - | - |
| 1788076354 | 13.89° C | 76% | 1014.3 hPa | 0 mm | - | - | - |
* Rain latest hour (hover to see other rain measurements)
** Current wind speed in m/s (hover to see current wind gust speed)